Time;durP1;ratioP1;P1;durP2;ratioP2;P2;SDS_P1;SDS_P2;PMS_P1;PMS_P2;Temp;Humidity;BMP_temperature;BMP_pressure;BME280_temperature;BME280_humidity;BME280_pressure;Samples;Min_cycle;Max_cycle;Signal;HPM_P1;HPM_P2
2023/01/15 00:01:27;;;;;;;;;0.00;0.00;;;;;;;;4916155;28;45351;-73
2023/01/15 00:03:53;;;;;;;;;0.00;0.00;;;;;;;;4917857;28;45585;-73
2023/01/15 00:06:19;;;;;;;;;2.00;0.00;;;;;;;;4917608;28;47185;-73
2023/01/15 00:08:44;;;;;;;;;1.00;1.00;;;;;;;;4917563;28;45429;-73
2023/01/15 00:11:10;;;;;;;;;0.00;0.00;;;;;;;;4918071;28;45375;-73
2023/01/15 00:13:35;;;;;;;;;0.00;0.00;;;;;;;;4917983;28;45315;-73
2023/01/15 00:16:04;;;;;;;;;0.00;0.00;;;;;;;;4917685;28;46329;-73
2023/01/15 00:18:30;;;;;;;;;0.00;0.00;;;;;;;;4906213;28;45282;-73
2023/01/15 00:21:02;;;;;;;;;0.00;0.00;;;;;;;;4917312;28;45309;-73
2023/01/15 00:28:58;;;;;;;;;0.00;0.00;;;;;;;;4906184;28;45486;-73
2023/01/15 00:31:24;;;;;;;;;0.00;0.00;;;;;;;;4916157;28;45555;-75
2023/01/15 00:33:49;;;;;;;;;1.00;0.00;;;;;;;;4917240;28;45354;-75
2023/01/15 00:36:14;;;;;;;;;1.25;0.00;;;;;;;;4917435;28;45899;-75
2023/01/15 00:38:39;;;;;;;;;0.00;0.00;;;;;;;;4917710;28;45358;-75
2023/01/15 00:41:04;;;;;;;;;0.00;0.00;;;;;;;;4915521;28;45325;-74
2023/01/15 00:43:30;;;;;;;;;0.00;0.00;;;;;;;;4917279;28;45489;-75
2023/01/15 00:45:55;;;;;;;;;0.00;0.00;;;;;;;;4917296;28;46048;-75
2023/01/15 00:48:20;;;;;;;;;0.00;0.00;;;;;;;;4912741;28;45460;-75
2023/01/15 00:50:45;;;;;;;;;0.25;0.00;;;;;;;;4921235;28;45387;-75
2023/01/15 00:53:11;;;;;;;;;0.00;0.00;;;;;;;;4921143;28;45409;-75
2023/01/15 00:55:36;;;;;;;;;2.50;1.00;;;;;;;;4916856;28;45389;-75
2023/01/15 00:58:01;;;;;;;;;0.00;0.00;;;;;;;;4920638;28;45505;-75
2023/01/15 01:00:26;;;;;;;;;1.00;1.00;;;;;;;;4919606;28;45373;-72
2023/01/15 01:02:51;;;;;;;;;2.00;0.00;;;;;;;;4916337;28;45548;-76
2023/01/15 01:05:17;;;;;;;;;0.75;0.00;;;;;;;;4949092;28;48453;-75
2023/01/15 01:07:42;;;;;;;;;0.25;0.00;;;;;;;;4950202;28;45431;-75
2023/01/15 01:10:08;;;;;;;;;0.00;0.00;;;;;;;;4920710;28;45354;-75
2023/01/15 01:12:33;;;;;;;;;0.00;0.00;;;;;;;;4920838;28;45434;-76
2023/01/15 01:14:58;;;;;;;;;0.00;0.00;;;;;;;;4918329;28;46117;-75
2023/01/15 01:17:23;;;;;;;;;0.00;0.00;;;;;;;;4917412;28;45801;-75
2023/01/15 01:19:49;;;;;;;;;2.00;0.00;;;;;;;;4920126;28;45513;-76
2023/01/15 01:22:14;;;;;;;;;0.75;0.00;;;;;;;;4918861;28;45569;-76
2023/01/15 01:24:39;;;;;;;;;0.00;0.00;;;;;;;;4920051;28;45437;-76
2023/01/15 01:27:04;;;;;;;;;0.00;0.00;;;;;;;;4920307;28;45425;-76
2023/01/15 01:29:29;;;;;;;;;3.00;1.00;;;;;;;;4920141;28;45398;-76
2023/01/15 01:31:55;;;;;;;;;2.00;0.00;;;;;;;;4919973;28;45353;-76
2023/01/15 01:34:20;;;;;;;;;1.00;0.00;;;;;;;;4920210;28;46143;-75
2023/01/15 01:36:45;;;;;;;;;0.00;0.00;;;;;;;;4920315;28;45347;-75
2023/01/15 01:39:15;;;;;;;;;2.00;0.00;;;;;;;;4919834;28;45442;-76
2023/01/15 01:41:40;;;;;;;;;0.00;0.00;;;;;;;;4950985;28;45382;-76
2023/01/15 01:44:07;;;;;;;;;0.75;0.00;;;;;;;;4919946;28;45283;-76
2023/01/15 01:46:34;;;;;;;;;0.00;0.00;;;;;;;;4920011;28;45441;-76
2023/01/15 01:49:03;;;;;;;;;1.00;0.00;;;;;;;;4920066;28;45398;-75
2023/01/15 01:51:30;;;;;;;;;0.00;0.00;;;;;;;;4919961;28;45473;-76
2023/01/15 01:53:57;;;;;;;;;1.00;1.00;;;;;;;;4918158;28;47630;-76
2023/01/15 01:56:22;;;;;;;;;0.00;0.00;;;;;;;;4920268;28;45674;-76
2023/01/15 01:58:50;;;;;;;;;0.00;0.00;;;;;;;;4950948;28;45456;-76
2023/01/15 02:01:16;;;;;;;;;1.75;0.00;;;;;;;;4918642;28;45398;-76
2023/01/15 02:03:41;;;;;;;;;0.25;0.00;;;;;;;;4919688;28;46355;-75
2023/01/15 02:06:09;;;;;;;;;0.50;0.50;;;;;;;;4918845;28;45394;-76
2023/01/15 02:08:38;;;;;;;;;0.00;0.00;;;;;;;;4920465;28;45319;-77
2023/01/15 02:11:03;;;;;;;;;1.75;0.00;;;;;;;;4920346;28;45370;-76
2023/01/15 02:13:39;;;;;;;;;1.75;0.00;;;;;;;;4920042;28;47340;-76
2023/01/15 02:16:27;;;;;;;;;0.25;0.25;;;;;;;;4920413;28;45350;-77
2023/01/15 02:18:52;;;;;;;;;0.00;0.00;;;;;;;;4914783;28;45329;-78
2023/01/15 02:21:17;;;;;;;;;0.00;0.00;;;;;;;;4920144;28;45223;-76
2023/01/15 02:23:59;;;;;;;;;1.00;0.00;;;;;;;;4919853;28;45350;-76
2023/01/15 02:26:42;;;;;;;;;0.25;0.25;;;;;;;;4920109;28;45372;-75
2023/01/15 02:29:11;;;;;;;;;0.00;0.00;;;;;;;;4950444;28;45324;-76
2023/01/15 02:31:37;;;;;;;;;0.00;0.00;;;;;;;;4920080;28;45438;-76
2023/01/15 02:34:10;;;;;;;;;0.00;0.00;;;;;;;;4919753;28;45390;-75
2023/01/15 02:36:39;;;;;;;;;0.00;0.00;;;;;;;;4919713;28;45458;-76
2023/01/15 02:39:06;;;;;;;;;0.00;0.00;;;;;;;;4919923;28;45742;-76
2023/01/15 02:41:35;;;;;;;;;0.00;0.00;;;;;;;;4919933;28;45310;-76
2023/01/15 02:44:01;;;;;;;;;0.00;0.00;;;;;;;;4918973;28;46485;-76
2023/01/15 02:46:29;;;;;;;;;0.00;0.00;;;;;;;;4919210;28;45373;-76
2023/01/15 02:48:56;;;;;;;;;0.00;0.00;;;;;;;;4919945;28;45299;-75
2023/01/15 02:51:24;;;;;;;;;1.00;0.00;;;;;;;;4925707;28;45345;-76
2023/01/15 02:53:52;;;;;;;;;0.00;0.00;;;;;;;;4928462;28;47255;-76
2023/01/15 02:56:19;;;;;;;;;0.00;0.00;;;;;;;;4924870;28;45334;-75
2023/01/15 02:58:46;;;;;;;;;0.00;0.00;;;;;;;;4920190;28;45258;-76
2023/01/15 03:01:23;;;;;;;;;0.00;0.00;;;;;;;;4951057;28;45509;-75
2023/01/15 03:03:52;;;;;;;;;0.00;0.00;;;;;;;;4920337;28;45998;-75
2023/01/15 03:06:26;;;;;;;;;0.00;0.00;;;;;;;;4920336;28;45437;-75
2023/01/15 03:08:52;;;;;;;;;0.00;0.00;;;;;;;;4920780;28;45302;-76
2023/01/15 03:11:18;;;;;;;;;1.00;0.00;;;;;;;;4919884;28;45303;-75
2023/01/15 03:13:50;;;;;;;;;1.00;0.00;;;;;;;;4918922;28;46463;-75
2023/01/15 03:16:34;;;;;;;;;0.00;0.00;;;;;;;;4924926;28;45492;-75
2023/01/15 03:19:04;;;;;;;;;0.00;0.00;;;;;;;;4917111;28;45453;-75
2023/01/15 03:21:48;;;;;;;;;1.00;0.00;;;;;;;;4927138;28;45445;-75
2023/01/15 03:24:17;;;;;;;;;0.00;0.00;;;;;;;;4921875;28;46724;-75
2023/01/15 03:26:42;;;;;;;;;0.00;0.00;;;;;;;;4917898;28;45405;-75
2023/01/15 03:29:08;;;;;;;;;0.00;0.00;;;;;;;;4918676;28;45365;-75
2023/01/15 03:31:35;;;;;;;;;0.00;0.00;;;;;;;;4918947;28;45318;-75
2023/01/15 03:34:00;;;;;;;;;0.00;0.00;;;;;;;;4918785;28;46133;-75
2023/01/15 03:36:25;;;;;;;;;0.00;0.00;;;;;;;;4918822;28;45426;-75
2023/01/15 03:38:51;;;;;;;;;0.00;0.00;;;;;;;;4918762;28;45456;-74
2023/01/15 03:41:39;;;;;;;;;0.00;0.00;;;;;;;;4918464;28;45290;-75
2023/01/15 03:44:20;;;;;;;;;0.00;0.00;;;;;;;;4915350;28;46109;-76
2023/01/15 03:46:50;;;;;;;;;0.00;0.00;;;;;;;;4918513;28;45344;-75
2023/01/15 03:49:38;;;;;;;;;0.00;0.00;;;;;;;;4918438;28;45361;-76
2023/01/15 03:52:10;;;;;;;;;0.00;0.00;;;;;;;;4916047;28;45424;-76
2023/01/15 03:54:35;;;;;;;;;0.00;0.00;;;;;;;;4918537;28;46152;-75
2023/01/15 03:57:05;;;;;;;;;0.00;0.00;;;;;;;;4949303;28;46338;-76
2023/01/15 03:59:38;;;;;;;;;0.00;0.00;;;;;;;;4918815;28;45327;-76
2023/01/15 04:02:07;;;;;;;;;0.00;0.00;;;;;;;;4918531;28;45520;-76
2023/01/15 04:04:32;;;;;;;;;0.00;0.00;;;;;;;;4917573;28;46308;-75
2023/01/15 04:06:58;;;;;;;;;2.00;0.00;;;;;;;;4917809;28;45475;-76
2023/01/15 04:09:24;;;;;;;;;0.00;0.00;;;;;;;;4918364;28;45367;-75
2023/01/15 04:11:49;;;;;;;;;0.00;0.00;;;;;;;;4917245;28;45442;-75
2023/01/15 04:14:14;;;;;;;;;0.00;0.00;;;;;;;;4918145;28;45359;-75
2023/01/15 04:16:39;;;;;;;;;0.00;0.00;;;;;;;;4917970;28;45361;-76
2023/01/15 04:19:05;;;;;;;;;0.00;0.00;;;;;;;;4917371;28;45426;-75
2023/01/15 04:21:30;;;;;;;;;0.75;0.75;;;;;;;;4917920;28;45389;-75
2023/01/15 04:23:56;;;;;;;;;0.00;0.00;;;;;;;;4926586;28;45297;-75
2023/01/15 04:26:21;;;;;;;;;0.25;0.00;;;;;;;;4936953;28;45374;-75
2023/01/15 04:28:46;;;;;;;;;0.00;0.00;;;;;;;;4937385;28;45346;-75
2023/01/15 04:31:11;;;;;;;;;0.75;0.00;;;;;;;;4937549;28;45231;-76
2023/01/15 04:33:38;;;;;;;;;0.75;0.00;;;;;;;;4936934;28;46369;-75
2023/01/15 04:36:04;;;;;;;;;0.00;0.00;;;;;;;;4937300;28;45288;-75
2023/01/15 04:38:29;;;;;;;;;0.50;0.00;;;;;;;;4937050;28;45322;-76
2023/01/15 04:46:23;;;;;;;;;0.00;0.00;;;;;;;;4936957;28;45409;-75
2023/01/15 04:48:48;;;;;;;;;0.00;0.00;;;;;;;;4937218;28;45381;-75
2023/01/15 04:51:13;;;;;;;;;0.00;0.00;;;;;;;;4913639;28;45541;-75
2023/01/15 04:53:39;;;;;;;;;1.00;0.00;;;;;;;;4913876;28;46425;-75
2023/01/15 04:56:05;;;;;;;;;0.00;0.00;;;;;;;;4963381;28;45358;-73
2023/01/15 04:58:30;;;;;;;;;0.00;0.00;;;;;;;;4937084;28;45373;-75
2023/01/15 05:00:56;;;;;;;;;0.00;0.00;;;;;;;;4935746;28;45566;-76
2023/01/15 05:03:21;;;;;;;;;0.00;0.00;;;;;;;;4936564;28;46988;-73
2023/01/15 05:05:47;;;;;;;;;0.00;0.00;;;;;;;;4936869;28;45342;-73
2023/01/15 05:08:12;;;;;;;;;0.00;0.00;;;;;;;;4968034;28;45403;-74
2023/01/15 05:10:37;;;;;;;;;0.00;0.00;;;;;;;;4937027;28;45559;-73
2023/01/15 05:13:02;;;;;;;;;1.00;0.00;;;;;;;;4936481;28;45505;-73
2023/01/15 05:15:27;;;;;;;;;0.00;0.00;;;;;;;;4936470;28;45437;-75
2023/01/15 05:17:53;;;;;;;;;0.00;0.00;;;;;;;;4937076;28;45256;-73
2023/01/15 05:20:18;;;;;;;;;0.00;0.00;;;;;;;;4936752;28;45358;-75
2023/01/15 05:22:43;;;;;;;;;0.00;0.00;;;;;;;;4932570;28;46188;-76
2023/01/15 05:25:08;;;;;;;;;0.00;0.00;;;;;;;;4917333;28;45308;-76
2023/01/15 05:27:34;;;;;;;;;2.00;0.00;;;;;;;;4917531;28;45283;-75
2023/01/15 05:29:59;;;;;;;;;0.00;0.00;;;;;;;;4917769;28;45335;-75
2023/01/15 05:32:24;;;;;;;;;0.00;0.00;;;;;;;;4917260;28;45228;-75
2023/01/15 05:34:49;;;;;;;;;1.00;0.00;;;;;;;;4918797;28;45316;-76
2023/01/15 05:37:14;;;;;;;;;0.00;0.00;;;;;;;;4919163;28;45356;-75
2023/01/15 05:39:40;;;;;;;;;0.00;0.00;;;;;;;;4920359;28;45330;-76
2023/01/15 05:42:06;;;;;;;;;0.00;0.00;;;;;;;;4920597;28;46467;-75
2023/01/15 05:44:32;;;;;;;;;0.00;0.00;;;;;;;;4920633;28;45374;-72
2023/01/15 05:46:59;;;;;;;;;0.00;0.00;;;;;;;;4920496;28;45193;-76
2023/01/15 05:49:25;;;;;;;;;0.00;0.00;;;;;;;;4920712;28;45409;-76
2023/01/15 05:51:51;;;;;;;;;0.25;0.00;;;;;;;;4920246;28;46629;-76
2023/01/15 05:54:24;;;;;;;;;0.00;0.00;;;;;;;;4919989;28;45330;-73
2023/01/15 05:56:50;;;;;;;;;0.00;0.00;;;;;;;;4920674;28;45278;-74
2023/01/15 05:59:16;;;;;;;;;0.00;0.00;;;;;;;;4920028;28;45450;-74
2023/01/15 06:01:41;;;;;;;;;0.00;0.00;;;;;;;;4920633;28;46228;-74
2023/01/15 06:04:07;;;;;;;;;0.00;0.00;;;;;;;;4920373;28;45580;-74
2023/01/15 06:06:33;;;;;;;;;0.00;0.00;;;;;;;;4920569;28;45617;-73
2023/01/15 06:08:59;;;;;;;;;0.00;0.00;;;;;;;;4920709;28;45322;-74
2023/01/15 06:11:24;;;;;;;;;0.00;0.00;;;;;;;;4920531;28;45321;-74
2023/01/15 06:13:49;;;;;;;;;0.75;0.00;;;;;;;;4920300;28;45349;-74
2023/01/15 06:16:15;;;;;;;;;2.00;0.00;;;;;;;;4919378;28;45310;-74
2023/01/15 06:18:40;;;;;;;;;0.00;0.00;;;;;;;;4921400;28;45266;-73
2023/01/15 06:21:07;;;;;;;;;0.00;0.00;;;;;;;;4920237;28;45361;-74
2023/01/15 06:23:35;;;;;;;;;0.00;0.00;;;;;;;;4920621;28;45339;-75
2023/01/15 06:26:01;;;;;;;;;0.00;0.00;;;;;;;;4920204;28;45396;-74
2023/01/15 06:28:26;;;;;;;;;0.00;0.00;;;;;;;;4920222;28;45418;-75
2023/01/15 06:30:52;;;;;;;;;0.00;0.00;;;;;;;;4919804;28;47277;-74
2023/01/15 06:33:17;;;;;;;;;1.00;1.00;;;;;;;;4919962;28;45609;-73
2023/01/15 06:35:42;;;;;;;;;0.00;0.00;;;;;;;;4918470;28;45381;-74
2023/01/15 06:38:07;;;;;;;;;0.00;0.00;;;;;;;;4919927;28;45358;-74
2023/01/15 06:40:32;;;;;;;;;0.00;0.00;;;;;;;;4918221;28;48481;-74
2023/01/15 06:48:26;;;;;;;;;0.00;0.00;;;;;;;;4919389;28;45338;-74
2023/01/15 06:50:52;;;;;;;;;0.75;0.25;;;;;;;;4919248;28;45464;-74
2023/01/15 06:53:18;;;;;;;;;0.00;0.00;;;;;;;;4919577;28;45581;-73
2023/01/15 06:55:43;;;;;;;;;0.00;0.00;;;;;;;;4919533;28;45374;-74
2023/01/15 06:58:08;;;;;;;;;0.00;0.00;;;;;;;;4919869;28;45399;-73
2023/01/15 07:00:33;;;;;;;;;0.00;0.00;;;;;;;;4919612;28;45415;-73
2023/01/15 07:02:59;;;;;;;;;0.00;0.00;;;;;;;;4919472;28;46216;-74
2023/01/15 07:05:24;;;;;;;;;0.00;0.00;;;;;;;;4919155;28;45399;-74
2023/01/15 07:07:49;;;;;;;;;0.00;0.00;;;;;;;;4919535;28;45307;-75
2023/01/15 07:10:15;;;;;;;;;1.00;0.00;;;;;;;;4919057;28;46159;-74
2023/01/15 07:12:40;;;;;;;;;0.00;0.00;;;;;;;;4919253;28;45388;-74
2023/01/15 07:15:05;;;;;;;;;0.00;0.00;;;;;;;;4919442;28;45424;-73
2023/01/15 07:17:31;;;;;;;;;1.00;0.00;;;;;;;;4919377;28;45337;-74
2023/01/15 07:19:56;;;;;;;;;0.00;0.00;;;;;;;;4919112;28;45284;-74
2023/01/15 07:22:21;;;;;;;;;1.00;0.00;;;;;;;;4920130;28;45267;-74
2023/01/15 07:24:47;;;;;;;;;0.00;0.00;;;;;;;;4918152;28;45445;-74
2023/01/15 07:27:12;;;;;;;;;0.00;0.00;;;;;;;;4919410;28;45328;-74
2023/01/15 07:29:37;;;;;;;;;0.00;0.00;;;;;;;;4919048;28;45913;-74
2023/01/15 07:32:02;;;;;;;;;0.00;0.00;;;;;;;;4919491;28;45301;-73
2023/01/15 07:34:27;;;;;;;;;0.00;0.00;;;;;;;;4919432;28;45297;-73
2023/01/15 07:36:53;;;;;;;;;0.00;0.00;;;;;;;;4919257;28;45288;-73
2023/01/15 07:39:18;;;;;;;;;0.00;0.00;;;;;;;;4919012;28;45493;-72
2023/01/15 07:50:00;;;;;;;;;0.00;0.00;;;;;;;;4918250;28;45881;-73
2023/01/15 07:52:25;;;;;;;;;0.00;0.00;;;;;;;;4918387;28;45342;-73
2023/01/15 07:54:50;;;;;;;;;0.00;0.00;;;;;;;;4918597;28;45257;-73
2023/01/15 07:57:17;;;;;;;;;0.50;0.00;;;;;;;;4912181;28;45364;-73
2023/01/15 07:59:43;;;;;;;;;0.00;0.00;;;;;;;;4910145;28;46068;-73
2023/01/15 08:02:08;;;;;;;;;0.00;0.00;;;;;;;;4917824;28;45325;-75
2023/01/15 08:04:34;;;;;;;;;1.25;0.00;;;;;;;;4917197;28;45206;-75
2023/01/15 08:07:00;;;;;;;;;2.50;0.00;;;;;;;;4946166;28;45381;-75
2023/01/15 08:09:25;;;;;;;;;0.00;0.00;;;;;;;;4907392;28;45641;-74
2023/01/15 08:17:18;;;;;;;;;0.00;0.00;;;;;;;;4898828;29;45205;-75
2023/01/15 08:19:43;;;;;;;;;0.00;0.00;;;;;;;;4907991;28;46205;-75
2023/01/15 08:22:09;;;;;;;;;0.00;0.00;;;;;;;;4916941;28;45589;-75
2023/01/15 08:24:34;;;;;;;;;0.00;0.00;;;;;;;;4917650;28;45466;-74
2023/01/15 08:26:59;;;;;;;;;1.00;1.00;;;;;;;;4911458;28;45247;-75
2023/01/15 08:29:25;;;;;;;;;1.00;0.00;;;;;;;;4904038;28;45199;-75
2023/01/15 08:31:50;;;;;;;;;0.75;0.00;;;;;;;;4915774;28;45275;-75
2023/01/15 08:34:15;;;;;;;;;0.00;0.00;;;;;;;;4936286;28;45275;-75
2023/01/15 08:36:40;;;;;;;;;2.25;1.25;;;;;;;;4936538;28;45566;-74
2023/01/15 08:39:05;;;;;;;;;0.00;0.00;;;;;;;;4936523;28;46301;-75
2023/01/15 08:41:31;;;;;;;;;0.00;0.00;;;;;;;;4936961;28;45212;-75
2023/01/15 08:43:56;;;;;;;;;0.50;0.00;;;;;;;;4937104;28;45386;-75
2023/01/15 08:46:21;;;;;;;;;2.50;0.00;;;;;;;;4936298;28;45261;-75
2023/01/15 08:48:47;;;;;;;;;0.00;0.00;;;;;;;;4936043;28;45478;-75
2023/01/15 08:51:12;;;;;;;;;0.00;0.00;;;;;;;;4936383;28;45264;-75
2023/01/15 08:53:38;;;;;;;;;0.00;0.00;;;;;;;;4938096;28;45232;-75
2023/01/15 08:56:03;;;;;;;;;0.75;0.75;;;;;;;;4936896;28;45412;-75
2023/01/15 08:58:30;;;;;;;;;0.00;0.00;;;;;;;;4935827;28;45441;-74
2023/01/15 09:00:55;;;;;;;;;1.00;0.00;;;;;;;;4936102;28;45408;-74
2023/01/15 09:03:21;;;;;;;;;1.75;0.00;;;;;;;;4935879;28;45335;-74
2023/01/15 09:05:46;;;;;;;;;0.00;0.00;;;;;;;;4937619;28;45927;-74
2023/01/15 09:08:11;;;;;;;;;2.00;0.25;;;;;;;;4936217;28;45401;-74
2023/01/15 09:10:37;;;;;;;;;1.50;0.00;;;;;;;;4938726;28;45444;-74
2023/01/15 09:13:02;;;;;;;;;0.00;0.00;;;;;;;;4939905;28;45317;-75
2023/01/15 09:15:28;;;;;;;;;0.00;0.00;;;;;;;;4919191;28;45529;-74
2023/01/15 09:17:54;;;;;;;;;1.00;0.00;;;;;;;;4920926;28;45506;-75
2023/01/15 09:20:19;;;;;;;;;0.00;0.00;;;;;;;;4920605;28;45461;-75
2023/01/15 09:22:45;;;;;;;;;0.00;0.00;;;;;;;;4921339;28;45365;-75
2023/01/15 09:25:10;;;;;;;;;0.00;0.00;;;;;;;;4921461;28;45329;-74
2023/01/15 09:27:36;;;;;;;;;0.00;0.00;;;;;;;;4921816;28;46034;-75
2023/01/15 09:30:03;;;;;;;;;0.00;0.00;;;;;;;;4924858;28;45383;-79
2023/01/15 09:32:28;;;;;;;;;0.00;0.00;;;;;;;;4925716;28;45369;-79
2023/01/15 09:34:53;;;;;;;;;0.00;0.00;;;;;;;;4924969;28;45314;-80
2023/01/15 09:37:18;;;;;;;;;0.75;0.00;;;;;;;;4921428;28;45365;-80
2023/01/15 09:39:44;;;;;;;;;1.00;0.00;;;;;;;;4919853;28;45374;-80
2023/01/15 09:42:14;;;;;;;;;0.75;0.00;;;;;;;;4921003;28;45375;-80
2023/01/15 09:44:59;;;;;;;;;1.00;1.00;;;;;;;;4920854;28;45283;-84
2023/01/15 09:47:43;;;;;;;;;0.00;0.00;;;;;;;;4920563;28;45524;-81
2023/01/15 09:50:37;;;;;;;;;0.00;0.00;;;;;;;;4920093;28;45442;-81
2023/01/15 09:53:08;;;;;;;;;0.75;0.75;;;;;;;;4899124;29;45442;-81
2023/01/15 09:55:39;;;;;;;;;1.00;1.00;;;;;;;;4899474;29;45606;-83
2023/01/15 09:58:05;;;;;;;;;0.75;0.75;;;;;;;;4898884;29;47266;-80
2023/01/15 10:00:44;;;;;;;;;0.00;0.00;;;;;;;;4883303;29;45907;-79
2023/01/15 10:03:09;;;;;;;;;0.00;0.00;;;;;;;;4894167;28;45428;-81
2023/01/15 10:05:55;;;;;;;;;0.00;0.00;;;;;;;;4899045;29;45392;-73
2023/01/15 10:08:23;;;;;;;;;0.00;0.00;;;;;;;;4877220;29;45506;-73
2023/01/15 10:10:54;;;;;;;;;1.00;0.00;;;;;;;;4897888;29;45332;-73
2023/01/15 10:13:37;;;;;;;;;0.25;0.00;;;;;;;;4898940;29;45542;-73
2023/01/15 10:16:02;;;;;;;;;0.50;0.00;;;;;;;;4898473;29;45284;-73
2023/01/15 10:18:28;;;;;;;;;2.50;0.00;;;;;;;;4898232;29;46370;-74
2023/01/15 10:20:56;;;;;;;;;1.00;0.00;;;;;;;;4897248;29;45523;-73
2023/01/15 10:23:26;;;;;;;;;0.00;0.00;;;;;;;;4897410;29;45406;-73
2023/01/15 10:25:56;;;;;;;;;0.00;0.00;;;;;;;;4889621;28;45513;-73
2023/01/15 10:28:29;;;;;;;;;0.00;0.00;;;;;;;;4896881;28;46369;-73
2023/01/15 10:30:57;;;;;;;;;0.00;0.00;;;;;;;;4911778;28;45439;-74
2023/01/15 10:33:32;;;;;;;;;3.00;0.00;;;;;;;;4913871;28;45607;-73
2023/01/15 10:36:02;;;;;;;;;0.00;0.00;;;;;;;;4915540;28;45442;-74
2023/01/15 10:38:27;;;;;;;;;3.00;0.75;;;;;;;;4912482;28;45401;-73
2023/01/15 10:41:09;;;;;;;;;1.00;0.00;;;;;;;;4918236;28;45302;-72
2023/01/15 10:43:45;;;;;;;;;0.00;0.00;;;;;;;;4919139;28;45354;-72
2023/01/15 10:46:15;;;;;;;;;1.00;0.50;;;;;;;;4919072;28;45380;-72
2023/01/15 10:48:43;;;;;;;;;0.00;0.00;;;;;;;;4918857;28;46074;-72
2023/01/15 10:51:26;;;;;;;;;2.50;1.00;;;;;;;;4919142;28;45331;-71
2023/01/15 10:53:57;;;;;;;;;0.25;0.00;;;;;;;;4949588;28;45361;-71
2023/01/15 10:56:29;;;;;;;;;1.50;0.00;;;;;;;;4918753;28;45327;-74
2023/01/15 10:59:13;;;;;;;;;1.00;0.75;;;;;;;;4914881;28;46523;-72
2023/01/15 11:01:39;;;;;;;;;0.00;0.00;;;;;;;;4918513;28;45469;-72
2023/01/15 11:04:05;;;;;;;;;0.00;0.00;;;;;;;;4919051;28;45407;-71
2023/01/15 11:06:31;;;;;;;;;0.00;0.00;;;;;;;;4918957;28;45239;-72
2023/01/15 11:08:57;;;;;;;;;0.00;0.00;;;;;;;;4916162;28;47314;-73
2023/01/15 11:19:39;;;;;;;;;0.00;0.00;;;;;;;;4946700;28;45516;-72
2023/01/15 11:22:09;;;;;;;;;0.50;0.00;;;;;;;;4918295;28;45376;-72
2023/01/15 11:24:43;;;;;;;;;0.50;0.50;;;;;;;;4918331;28;45330;-72
2023/01/15 11:27:13;;;;;;;;;0.00;0.00;;;;;;;;4903748;28;45328;-72
2023/01/15 11:29:38;;;;;;;;;1.50;0.00;;;;;;;;4918169;28;45447;-73
2023/01/15 11:32:16;;;;;;;;;0.00;0.00;;;;;;;;4917928;28;45615;-72
2023/01/15 11:34:50;;;;;;;;;0.50;0.50;;;;;;;;4918457;28;45329;-72
2023/01/15 11:37:16;;;;;;;;;1.00;1.00;;;;;;;;4918196;28;45406;-73
2023/01/15 11:39:50;;;;;;;;;0.00;0.00;;;;;;;;4948578;28;45983;-73
2023/01/15 11:51:00;;;;;;;;;0.25;0.00;;;;;;;;4917719;28;45346;-72
2023/01/15 11:53:27;;;;;;;;;0.00;0.00;;;;;;;;4917851;28;45373;-73
2023/01/15 11:56:05;;;;;;;;;0.00;0.00;;;;;;;;4917783;28;45405;-73
2023/01/15 11:58:40;;;;;;;;;0.00;0.00;;;;;;;;4911559;28;45453;-73
2023/01/15 12:01:05;;;;;;;;;0.00;0.00;;;;;;;;4917650;28;45288;-73
2023/01/15 12:03:33;;;;;;;;;0.00;0.00;;;;;;;;4916179;28;45772;-73
2023/01/15 12:06:04;;;;;;;;;3.00;0.00;;;;;;;;4917972;28;45695;-73
2023/01/15 12:08:29;;;;;;;;;1.00;0.00;;;;;;;;4917247;28;45579;-72
2023/01/15 12:11:03;;;;;;;;;0.00;0.00;;;;;;;;4912760;28;46345;-72
2023/01/15 12:13:34;;;;;;;;;3.50;0.00;;;;;;;;4916603;28;45347;-73
2023/01/15 12:16:25;;;;;;;;;0.00;0.00;;;;;;;;4917429;28;45442;-73
2023/01/15 12:18:58;;;;;;;;;0.00;0.00;;;;;;;;4917451;28;45473;-73
2023/01/15 12:21:41;;;;;;;;;0.00;0.00;;;;;;;;4916838;28;47336;-73
2023/01/15 12:24:25;;;;;;;;;2.00;0.00;;;;;;;;4916385;28;45345;-73
2023/01/15 12:26:56;;;;;;;;;0.00;0.00;;;;;;;;4916983;28;45456;-73
2023/01/15 12:29:26;;;;;;;;;0.00;0.00;;;;;;;;4917196;28;45425;-73
2023/01/15 12:31:54;;;;;;;;;0.50;0.00;;;;;;;;4917559;28;45561;-73
2023/01/15 12:34:38;;;;;;;;;2.67;0.00;;;;;;;;4917136;28;45476;-73
2023/01/15 12:37:25;;;;;;;;;0.33;0.00;;;;;;;;4902112;28;45399;-72
2023/01/15 12:39:53;;;;;;;;;1.00;0.00;;;;;;;;4917416;28;45276;-74
2023/01/15 12:45:08;;;;;;;;;1.00;0.00;;;;;;;;4916209;28;45354;-72
2023/01/15 12:47:41;;;;;;;;;1.25;0.00;;;;;;;;4918381;28;45480;-73
2023/01/15 12:50:25;;;;;;;;;0.00;0.00;;;;;;;;4918222;28;45474;-72
2023/01/15 12:52:56;;;;;;;;;0.00;0.00;;;;;;;;4918396;28;45321;-72
2023/01/15 12:55:25;;;;;;;;;0.00;0.00;;;;;;;;4918325;28;45266;-73
2023/01/15 12:57:54;;;;;;;;;0.00;0.00;;;;;;;;4916001;28;45498;-73
2023/01/15 13:00:22;;;;;;;;;0.00;0.00;;;;;;;;4917225;28;45391;-73
2023/01/15 13:02:47;;;;;;;;;0.00;0.00;;;;;;;;4916660;28;46293;-73
2023/01/15 13:05:21;;;;;;;;;0.25;0.25;;;;;;;;4917134;28;45654;-73
2023/01/15 13:08:10;;;;;;;;;1.50;1.50;;;;;;;;4915667;28;45295;-73
2023/01/15 13:10:37;;;;;;;;;0.75;0.00;;;;;;;;4916846;28;46226;-73
2023/01/15 13:13:16;;;;;;;;;0.00;0.00;;;;;;;;4916588;28;46187;-73
2023/01/15 13:15:49;;;;;;;;;0.00;0.00;;;;;;;;4916945;28;45522;-73
2023/01/15 13:18:33;;;;;;;;;1.25;0.25;;;;;;;;4916808;28;45332;-74
2023/01/15 13:21:00;;;;;;;;;0.75;0.00;;;;;;;;4916086;28;45469;-73
2023/01/15 13:23:41;;;;;;;;;0.00;0.00;;;;;;;;4916542;28;45350;-73
2023/01/15 13:26:21;;;;;;;;;1.00;0.00;;;;;;;;4916591;28;45389;-74
2023/01/15 13:29:04;;;;;;;;;0.00;0.00;;;;;;;;4915920;28;45231;-73
2023/01/15 13:31:45;;;;;;;;;0.00;0.00;;;;;;;;4916781;28;45378;-73
2023/01/15 13:34:29;;;;;;;;;0.00;0.00;;;;;;;;4916394;28;47301;-73
2023/01/15 13:36:56;;;;;;;;;0.00;0.00;;;;;;;;4916136;28;45374;-73
2023/01/15 13:39:23;;;;;;;;;1.00;0.00;;;;;;;;4916706;28;45434;-73
2023/01/15 13:44:45;;;;;;;;;0.50;0.00;;;;;;;;4916098;28;45817;-73
2023/01/15 13:47:12;;;;;;;;;0.00;0.00;;;;;;;;4932338;28;45463;-73
2023/01/15 13:49:45;;;;;;;;;0.00;0.00;;;;;;;;4916237;28;45304;-73
2023/01/15 13:52:37;;;;;;;;;0.25;0.00;;;;;;;;4916225;28;45311;-73
2023/01/15 13:55:19;;;;;;;;;2.50;0.00;;;;;;;;4900795;28;45420;-73
2023/01/15 13:57:44;;;;;;;;;1.00;0.00;;;;;;;;4918949;28;45849;-72
2023/01/15 14:00:28;;;;;;;;;1.00;0.00;;;;;;;;4919606;28;45372;-72
2023/01/15 14:02:58;;;;;;;;;0.25;0.00;;;;;;;;4948116;28;45299;-73
2023/01/15 14:05:25;;;;;;;;;1.00;1.00;;;;;;;;4918943;28;45511;-72
2023/01/15 14:07:51;;;;;;;;;1.50;0.00;;;;;;;;4919543;28;45363;-72
2023/01/15 14:10:16;;;;;;;;;0.50;0.00;;;;;;;;4919356;28;45363;-72
2023/01/15 14:12:44;;;;;;;;;2.50;0.25;;;;;;;;4917913;28;45534;-76
2023/01/15 14:15:25;;;;;;;;;0.00;0.00;;;;;;;;4919296;28;45761;-74
2023/01/15 14:18:09;;;;;;;;;0.00;0.00;;;;;;;;4919164;28;45358;-74
2023/01/15 14:21:00;;;;;;;;;0.25;0.25;;;;;;;;4916866;28;45471;-76
2023/01/15 14:23:26;;;;;;;;;0.00;0.00;;;;;;;;4916786;28;45901;-74
2023/01/15 14:25:56;;;;;;;;;0.00;0.00;;;;;;;;4919119;28;46267;-73
2023/01/15 14:28:24;;;;;;;;;0.00;0.00;;;;;;;;4919095;28;45403;-72
2023/01/15 14:30:50;;;;;;;;;1.25;0.00;;;;;;;;4919172;28;45406;-72
2023/01/15 14:33:26;;;;;;;;;1.50;0.00;;;;;;;;4918921;28;45413;-78
2023/01/15 14:35:52;;;;;;;;;0.00;0.00;;;;;;;;4949532;28;48109;-76
2023/01/15 14:38:23;;;;;;;;;1.00;1.00;;;;;;;;4918643;28;45418;-76
2023/01/15 14:40:54;;;;;;;;;0.00;0.00;;;;;;;;4919067;28;45314;-73
2023/01/15 14:43:21;;;;;;;;;0.00;0.00;;;;;;;;4949605;28;45441;-76
2023/01/15 14:45:48;;;;;;;;;0.00;0.00;;;;;;;;4918690;28;45287;-75
2023/01/15 14:48:16;;;;;;;;;0.00;0.00;;;;;;;;4918510;28;45659;-76
2023/01/15 14:50:42;;;;;;;;;0.00;0.00;;;;;;;;4918933;28;45471;-75
2023/01/15 14:53:10;;;;;;;;;0.00;0.00;;;;;;;;4919443;28;45478;-76
2023/01/15 14:55:38;;;;;;;;;3.25;0.00;;;;;;;;4919340;28;46189;-76
2023/01/15 14:58:07;;;;;;;;;2.00;0.00;;;;;;;;4919165;28;45374;-74
2023/01/15 15:00:35;;;;;;;;;0.00;0.00;;;;;;;;4919704;28;45296;-76
2023/01/15 15:03:03;;;;;;;;;1.00;1.00;;;;;;;;4919008;28;45243;-76
2023/01/15 15:05:30;;;;;;;;;0.50;0.50;;;;;;;;4918868;28;46096;-75
2023/01/15 15:07:55;;;;;;;;;0.50;0.50;;;;;;;;4918424;28;45438;-75
2023/01/15 15:10:21;;;;;;;;;2.00;0.75;;;;;;;;4918327;28;45322;-75
2023/01/15 15:13:05;;;;;;;;;0.00;0.00;;;;;;;;4919154;28;45462;-74
2023/01/15 15:15:41;;;;;;;;;0.00;0.00;;;;;;;;4918574;28;46174;-74
2023/01/15 15:18:06;;;;;;;;;1.25;0.00;;;;;;;;4917227;28;45828;-73
2023/01/15 15:20:32;;;;;;;;;2.00;1.00;;;;;;;;4918239;28;45411;-73
2023/01/15 15:23:03;;;;;;;;;0.00;0.00;;;;;;;;4949558;28;45544;-73
2023/01/15 15:25:31;;;;;;;;;3.50;0.00;;;;;;;;4918985;28;45653;-76
2023/01/15 15:28:04;;;;;;;;;3.00;0.75;;;;;;;;4918809;28;45417;-75
2023/01/15 15:30:31;;;;;;;;;1.00;1.00;;;;;;;;4919124;28;45390;-76
2023/01/15 15:32:56;;;;;;;;;0.25;0.25;;;;;;;;4918221;28;45262;-76
2023/01/15 15:35:25;;;;;;;;;1.25;0.00;;;;;;;;4916890;28;46749;-76
2023/01/15 15:37:51;;;;;;;;;2.00;1.00;;;;;;;;4918819;28;45274;-76
2023/01/15 15:40:18;;;;;;;;;1.25;0.25;;;;;;;;4918791;28;45417;-77
2023/01/15 15:48:51;;;;;;;;;0.00;0.00;;;;;;;;4918646;28;45594;-74
2023/01/15 15:51:22;;;;;;;;;0.00;0.00;;;;;;;;4919018;28;45269;-76